sensor_id;sensor_type;location;lat;lon;timestamp;pressure;altitude;pressure_sealevel;temperature;humidity
4528;BME280;62320;51.520;6.818;2023-02-28T00:05:30;102582.63;;;0.77;80.90
4528;BME280;62320;51.520;6.818;2023-02-28T00:15:32;102580.88;;;0.64;80.35
4528;BME280;62320;51.520;6.818;2023-02-28T00:25:34;102591.28;;;0.67;80.03
4528;BME280;62320;51.520;6.818;2023-02-28T00:35:35;102586.22;;;0.56;80.41
4528;BME280;62320;51.520;6.818;2023-02-28T00:45:37;102591.09;;;0.53;80.42
4528;BME280;62320;51.520;6.818;2023-02-28T00:55:38;102590.91;;;0.50;80.42
4528;BME280;62320;51.520;6.818;2023-02-28T01:05:40;102599.63;;;0.53;80.18
4528;BME280;62320;51.520;6.818;2023-02-28T01:15:50;102609.91;;;0.55;80.33
4528;BME280;62320;51.520;6.818;2023-02-28T01:25:52;102605.63;;;0.42;80.99
4528;BME280;62320;51.520;6.818;2023-02-28T01:36:10;102602.84;;;0.51;80.91
4528;BME280;62320;51.520;6.818;2023-02-28T01:46:13;102586.97;;;0.30;80.70
4528;BME280;62320;51.520;6.818;2023-02-28T01:56:18;102587.88;;;0.19;81.37
4528;BME280;62320;51.520;6.818;2023-02-28T02:06:37;102580.91;;;0.17;80.67
4528;BME280;62320;51.520;6.818;2023-02-28T02:17:51;102570.41;;;0.00;80.51
4528;BME280;62320;51.520;6.818;2023-02-28T02:27:25;102561.81;;;-0.13;81.07
4528;BME280;62320;51.520;6.818;2023-02-28T02:37:40;102552.53;;;-0.24;81.85
4528;BME280;62320;51.520;6.818;2023-02-28T02:47:45;102554.19;;;-0.36;81.62
4528;BME280;62320;51.520;6.818;2023-02-28T02:57:59;102569.34;;;-0.49;82.28
4528;BME280;62320;51.520;6.818;2023-02-28T03:08:05;102566.00;;;-0.72;84.29
4528;BME280;62320;51.520;6.818;2023-02-28T03:18:20;102561.81;;;-0.71;84.32
4528;BME280;62320;51.520;6.818;2023-02-28T03:39:14;102556.38;;;-0.87;83.73
4528;BME280;62320;51.520;6.818;2023-02-28T03:49:31;102574.03;;;-0.89;83.42
4528;BME280;62320;51.520;6.818;2023-02-28T04:09:37;102567.06;;;-0.91;83.30
4528;BME280;62320;51.520;6.818;2023-02-28T04:19:39;102566.75;;;-1.17;83.38
4528;BME280;62320;51.520;6.818;2023-02-28T04:29:40;102579.00;;;-1.23;83.28
4528;BME280;62320;51.520;6.818;2023-02-28T04:39:45;102582.84;;;-1.28;83.30
4528;BME280;62320;51.520;6.818;2023-02-28T04:49:47;102582.03;;;-1.39;83.61
4528;BME280;62320;51.520;6.818;2023-02-28T04:59:48;102592.47;;;-1.46;83.86
4528;BME280;62320;51.520;6.818;2023-02-28T05:09:50;102592.28;;;-1.37;82.48
4528;BME280;62320;51.520;6.818;2023-02-28T05:19:51;102599.66;;;-1.40;82.61
4528;BME280;62320;51.520;6.818;2023-02-28T05:29:54;102597.75;;;-1.43;82.19
4528;BME280;62320;51.520;6.818;2023-02-28T05:39:56;102607.09;;;-1.54;82.53
4528;BME280;62320;51.520;6.818;2023-02-28T05:49:57;102611.16;;;-1.56;82.44
4528;BME280;62320;51.520;6.818;2023-02-28T05:59:59;102619.69;;;-1.65;82.70
4528;BME280;62320;51.520;6.818;2023-02-28T06:10:00;102618.88;;;-1.76;82.24
4528;BME280;62320;51.520;6.818;2023-02-28T06:20:02;102624.31;;;-1.81;82.70
4528;BME280;62320;51.520;6.818;2023-02-28T06:30:04;102633.09;;;-1.88;83.56
4528;BME280;62320;51.520;6.818;2023-02-28T06:40:06;102644.50;;;-1.83;81.93
4528;BME280;62320;51.520;6.818;2023-02-28T06:50:10;102652.03;;;-1.63;84.22
4528;BME280;62320;51.520;6.818;2023-02-28T07:00:13;102654.16;;;-1.57;82.36
4528;BME280;62320;51.520;6.818;2023-02-28T07:10:14;102662.69;;;-1.35;81.59
4528;BME280;62320;51.520;6.818;2023-02-28T07:20:20;102669.72;;;-1.21;81.49
4528;BME280;62320;51.520;6.818;2023-02-28T07:30:22;102676.41;;;-1.00;81.53
4528;BME280;62320;51.520;6.818;2023-02-28T07:40:23;102679.53;;;-0.70;80.74
4528;BME280;62320;51.520;6.818;2023-02-28T07:50:25;102683.19;;;-0.67;80.31
4528;BME280;62320;51.520;6.818;2023-02-28T08:00:30;102676.03;;;-0.49;79.85
4528;BME280;62320;51.520;6.818;2023-02-28T08:10:33;102685.34;;;-0.38;79.44
4528;BME280;62320;51.520;6.818;2023-02-28T08:20:35;102684.38;;;-0.29;78.89
4528;BME280;62320;51.520;6.818;2023-02-28T08:30:36;102685.63;;;-0.12;78.02
4528;BME280;62320;51.520;6.818;2023-02-28T08:40:38;102692.63;;;0.02;76.75
4528;BME280;62320;51.520;6.818;2023-02-28T08:50:39;102680.44;;;0.10;77.31
4528;BME280;62320;51.520;6.818;2023-02-28T09:00:41;102676.78;;;0.29;77.05
4528;BME280;62320;51.520;6.818;2023-02-28T09:10:42;102669.81;;;0.38;75.63
4528;BME280;62320;51.520;6.818;2023-02-28T09:20:44;102659.25;;;0.57;73.50
4528;BME280;62320;51.520;6.818;2023-02-28T09:30:48;102660.09;;;0.81;72.63
4528;BME280;62320;51.520;6.818;2023-02-28T09:40:58;102660.16;;;0.94;70.77
4528;BME280;62320;51.520;6.818;2023-02-28T09:51:04;102666.63;;;1.13;68.00
4528;BME280;62320;51.520;6.818;2023-02-28T10:01:30;102661.06;;;1.32;67.19
4528;BME280;62320;51.520;6.818;2023-02-28T10:11:36;102663.47;;;1.42;66.51
4528;BME280;62320;51.520;6.818;2023-02-28T10:21:43;102646.09;;;1.74;64.80
4528;BME280;62320;51.520;6.818;2023-02-28T10:31:47;102650.81;;;1.81;65.50
4528;BME280;62320;51.520;6.818;2023-02-28T10:41:49;102635.41;;;2.06;65.60
4528;BME280;62320;51.520;6.818;2023-02-28T10:51:56;102646.28;;;2.16;65.64
4528;BME280;62320;51.520;6.818;2023-02-28T11:01:58;102631.81;;;2.43;64.49
4528;BME280;62320;51.520;6.818;2023-02-28T11:12:02;102627.84;;;2.74;63.13
4528;BME280;62320;51.520;6.818;2023-02-28T11:22:06;102633.03;;;2.76;61.66
4528;BME280;62320;51.520;6.818;2023-02-28T11:42:17;102627.44;;;2.96;61.07
4528;BME280;62320;51.520;6.818;2023-02-28T11:52:36;102616.75;;;3.16;59.78
4528;BME280;62320;51.520;6.818;2023-02-28T12:13:18;102597.97;;;3.30;59.02
4528;BME280;62320;51.520;6.818;2023-02-28T12:33:47;102562.34;;;3.48;59.21
4528;BME280;62320;51.520;6.818;2023-02-28T12:44:00;102563.50;;;3.53;58.81
4528;BME280;62320;51.520;6.818;2023-02-28T12:54:28;102538.78;;;3.68;58.65
4528;BME280;62320;51.520;6.818;2023-02-28T13:04:41;102530.59;;;3.74;60.40
4528;BME280;62320;51.520;6.818;2023-02-28T13:14:45;102525.19;;;3.84;60.17
4528;BME280;62320;51.520;6.818;2023-02-28T13:24:57;102514.59;;;4.08;60.16
4528;BME280;62320;51.520;6.818;2023-02-28T13:55:24;102491.47;;;4.23;60.46
4528;BME280;62320;51.520;6.818;2023-02-28T14:05:30;102500.28;;;4.28;61.96
4528;BME280;62320;51.520;6.818;2023-02-28T14:15:39;102499.50;;;4.29;61.30
4528;BME280;62320;51.520;6.818;2023-02-28T14:25:58;102494.47;;;4.30;61.47
4528;BME280;62320;51.520;6.818;2023-02-28T14:36:17;102500.00;;;4.38;60.23
4528;BME280;62320;51.520;6.818;2023-02-28T14:46:19;102484.63;;;4.38;60.82
4528;BME280;62320;51.520;6.818;2023-02-28T14:56:48;102477.91;;;4.40;61.50
4528;BME280;62320;51.520;6.818;2023-02-28T15:06:46;102481.50;;;4.44;62.80
4528;BME280;62320;51.520;6.818;2023-02-28T15:17:03;102475.47;;;4.43;61.08
4528;BME280;62320;51.520;6.818;2023-02-28T15:27:13;102478.03;;;4.43;62.53
4528;BME280;62320;51.520;6.818;2023-02-28T15:47:36;102470.22;;;4.40;60.46
4528;BME280;62320;51.520;6.818;2023-02-28T15:57:39;102467.97;;;4.46;58.79
4528;BME280;62320;51.520;6.818;2023-02-28T16:07:42;102470.94;;;4.38;61.69
4528;BME280;62320;51.520;6.818;2023-02-28T16:17:45;102462.31;;;4.36;62.04
4528;BME280;62320;51.520;6.818;2023-02-28T16:27:49;102479.97;;;4.31;61.27
4528;BME280;62320;51.520;6.818;2023-02-28T16:37:51;102482.44;;;4.29;62.51
4528;BME280;62320;51.520;6.818;2023-02-28T16:47:53;102486.47;;;4.24;62.83
4528;BME280;62320;51.520;6.818;2023-02-28T16:57:58;102495.50;;;4.18;60.54
4528;BME280;62320;51.520;6.818;2023-02-28T17:08:00;102503.56;;;4.09;63.17
4528;BME280;62320;51.520;6.818;2023-02-28T17:18:01;102512.59;;;4.03;64.16
4528;BME280;62320;51.520;6.818;2023-02-28T17:28:03;102522.25;;;3.92;63.92
4528;BME280;62320;51.520;6.818;2023-02-28T17:38:15;102523.59;;;3.86;63.27
4528;BME280;62320;51.520;6.818;2023-02-28T17:48:17;102526.50;;;3.77;64.56
4528;BME280;62320;51.520;6.818;2023-02-28T17:58:18;102535.56;;;3.56;64.11
4528;BME280;62320;51.520;6.818;2023-02-28T18:08:20;102532.03;;;3.54;65.67
4528;BME280;62320;51.520;6.818;2023-02-28T18:18:22;102531.97;;;3.38;66.58
4528;BME280;62320;51.520;6.818;2023-02-28T18:28:24;102544.22;;;3.29;66.07
4528;BME280;62320;51.520;6.818;2023-02-28T18:38:25;102536.66;;;3.16;65.68
4528;BME280;62320;51.520;6.818;2023-02-28T18:48:27;102544.75;;;3.09;67.45
4528;BME280;62320;51.520;6.818;2023-02-28T18:58:28;102542.25;;;2.96;66.58
4528;BME280;62320;51.520;6.818;2023-02-28T19:08:30;102543.28;;;2.84;66.90
4528;BME280;62320;51.520;6.818;2023-02-28T19:18:32;102557.22;;;2.62;67.73
4528;BME280;62320;51.520;6.818;2023-02-28T19:28:33;102558.63;;;2.29;67.96
4528;BME280;62320;51.520;6.818;2023-02-28T19:38:35;102560.50;;;2.32;68.32
4528;BME280;62320;51.520;6.818;2023-02-28T19:48:36;102556.09;;;2.29;69.69
4528;BME280;62320;51.520;6.818;2023-02-28T19:58:39;102564.75;;;2.05;69.75
4528;BME280;62320;51.520;6.818;2023-02-28T20:08:41;102576.63;;;1.78;70.61
4528;BME280;62320;51.520;6.818;2023-02-28T20:18:43;102582.94;;;1.83;70.20
4528;BME280;62320;51.520;6.818;2023-02-28T20:28:46;102588.31;;;1.75;70.47
4528;BME280;62320;51.520;6.818;2023-02-28T20:38:49;102568.19;;;1.53;71.50
4528;BME280;62320;51.520;6.818;2023-02-28T20:48:51;102573.00;;;1.49;71.21
4528;BME280;62320;51.520;6.818;2023-02-28T20:58:53;102558.47;;;1.34;73.63
4528;BME280;62320;51.520;6.818;2023-02-28T21:08:58;102571.47;;;1.13;72.33
4528;BME280;62320;51.520;6.818;2023-02-28T21:18:59;102565.63;;;1.02;73.92
4528;BME280;62320;51.520;6.818;2023-02-28T21:29:05;102581.16;;;0.81;75.14
4528;BME280;62320;51.520;6.818;2023-02-28T21:39:18;102573.25;;;0.64;76.25
4528;BME280;62320;51.520;6.818;2023-02-28T21:49:20;102572.84;;;0.83;73.35
4528;BME280;62320;51.520;6.818;2023-02-28T21:59:21;102576.38;;;0.60;76.66
4528;BME280;62320;51.520;6.818;2023-02-28T22:09:23;102580.47;;;0.58;76.43
4528;BME280;62320;51.520;6.818;2023-02-28T22:19:25;102569.75;;;0.51;76.47
4528;BME280;62320;51.520;6.818;2023-02-28T22:29:30;102575.63;;;0.50;75.37
4528;BME280;62320;51.520;6.818;2023-02-28T22:39:31;102572.88;;;0.47;74.59
4528;BME280;62320;51.520;6.818;2023-02-28T22:49:33;102580.66;;;0.61;73.84
4528;BME280;62320;51.520;6.818;2023-02-28T22:59:34;102570.59;;;0.27;76.97
4528;BME280;62320;51.520;6.818;2023-02-28T23:09:36;102558.34;;;0.21;78.06
4528;BME280;62320;51.520;6.818;2023-02-28T23:19:37;102590.22;;;0.05;78.50
4528;BME280;62320;51.520;6.818;2023-02-28T23:29:39;102579.03;;;0.03;77.10
4528;BME280;62320;51.520;6.818;2023-02-28T23:39:40;102594.31;;;-0.09;78.69
4528;BME280;62320;51.520;6.818;2023-02-28T23:49:43;102599.41;;;-0.21;79.04
4528;BME280;62320;51.520;6.818;2023-02-28T23:59:44;102609.34;;;-0.24;78.35
